Celine — HBEF — position and weather

sailwx.info

Track history (hours):
 
Tides and Currents Weather Stations Pressure Air Temp Water Temp Dewpoint Dewpoint Depression Visibility Wind Speed Wind Dir Waves Ship Positions

Celine

Last reported at 2014-Oct-30 05:15 UTC. Time now 2014-Oct-31 05:36 UTC.
Position N 43°39' W 003°14'.

Length 129 m; draft 6.4 m.

Type: Cargo ship. MMSI: 269057000.

Date/timePositionNaut miles runAvg speedWind from/ knotsBaromVisibWave heightAir tempDewpointWater temp
2014-Oct-30 05:15N 43°39' W 003°14'913.4
2014-Oct-30 04:34N 43°48' W 003°19'1313.3
2014-Oct-30 03:33N 44°00' W 003°25'1313.2
2014-Oct-30 02:34N 44°12' W 003°32'1313.4
2014-Oct-30 01:33N 44°25' W 003°38'8113.4
2014-Oct-29 19:34N 45°40' W 004°19'1313.0
2014-Oct-29 18:34N 45°52' W 004°25'1313.0
2014-Oct-29 17:34N 46°04' W 004°33'1312.8
2014-Oct-29 16:33N 46°16' W 004°40'1312.6
2014-Oct-29 15:34N 46°28' W 004°46'1313.1
2014-Oct-29 14:34N 46°40' W 004°52'1212.2
2014-Oct-29 13:34N 46°52' W 004°58'1212.2
2014-Oct-29 12:33N 47°03' W 005°05'1313.2
2014-Oct-29 11:33N 47°16' W 005°12'1313.0
2014-Oct-29 10:33N 47°27' W 005°19'1313.4
2014-Oct-29 09:33N 47°40' W 005°27'1413.6
2014-Oct-29 08:33N 47°53' W 005°34'1313.1
2014-Oct-29 07:34N 48°05' W 005°41'14210.8
2014-Oct-28 18:27N 49°52' W 003°19'1112.6
2014-Oct-28 17:33N 49°58' W 003°04'1514.5
2014-Oct-28 16:33N 50°02' W 002°42'1615.6
2014-Oct-28 15:30N 50°07' W 002°18'1615.0
2014-Oct-28 14:28N 50°11' W 001°54'1313.5
2014-Oct-28 13:31N 50°14' W 001°35'1212.1
2014-Oct-28 12:31N 50°17' W 001°17'1210.5
2014-Oct-28 11:22N 50°20' W 000°58'8 9.8
2014-Oct-28 10:33N 50°22' W 000°46'1210.2
2014-Oct-28 09:21N 50°24' W 000°27'911.5
2014-Oct-28 08:33N 50°26' W 000°13'1312.8
2014-Oct-28 07:33N 50°30' E 000°06'1414.1
2014-Oct-28 06:33N 50°34' E 000°27'1413.9
2014-Oct-28 05:34N 50°40' E 000°46'1312.9
2014-Oct-28 04:33N 50°47' E 001°04'1211.7
2014-Oct-28 03:33N 50°55' E 001°18'1010.2
2014-Oct-28 02:33N 51°02' E 001°29'10 9.7
2014-Oct-28 01:33N 51°09' E 001°40'1111.3
2014-Oct-28 00:34N 51°19' E 001°49'1313.3
2014-Oct-27 23:34N 51°29' E 002°03'1414.3
2014-Oct-27 22:33N 51°39' E 002°19'1514.5
2014-Oct-27 21:33N 51°51' E 002°33'1413.7
2014-Oct-27 20:33N 52°02' E 002°47'1212.4
2014-Oct-27 19:33N 52°03' E 003°07'1312.8
2014-Oct-27 18:33N 52°03' E 003°28'1212.0
2014-Oct-27 17:33N 52°04' E 003°48'10 9.9
2014-Oct-27 16:33N 51°60' E 004°02'9 9.3
2014-Oct-27 15:33N 51°54' E 004°14'0 0.2
2014-Oct-27 14:31N 51°54' E 004°14'0 0.0
2014-Oct-27 13:28N 51°54' E 004°14'0 0.0
2014-Oct-27 12:31N 51°54' E 004°14'0 0.0
2014-Oct-27 11:31N 51°54' E 004°14'0 0.0
2014-Oct-27 10:31N 51°54' E 004°14'0 0.0
2014-Oct-27 09:31N 51°54' E 004°14'0 0.0
2014-Oct-27 08:31N 51°54' E 004°14'0 0.0
2014-Oct-27 07:31N 51°54' E 004°14'0 0.0
2014-Oct-27 06:31N 51°54' E 004°14'0 0.0
2014-Oct-27 05:31N 51°54' E 004°14'0 0.0
2014-Oct-27 04:31N 51°54' E 004°14'0 0.0
2014-Oct-27 03:31N 51°54' E 004°14'0 0.0
2014-Oct-27 02:31N 51°54' E 004°14'0 0.0
2014-Oct-27 01:31N 51°54' E 004°14'0 0.0
2014-Oct-27 00:31N 51°54' E 004°14'0 0.0
2014-Oct-26 23:31N 51°54' E 004°14'0 0.0
2014-Oct-26 22:31N 51°54' E 004°14'0 0.0
2014-Oct-26 21:31N 51°54' E 004°14'0 0.0
2014-Oct-26 20:31N 51°54' E 004°14'0 0.0
2014-Oct-26 19:31N 51°54' E 004°14'0 0.0
2014-Oct-26 18:31N 51°54' E 004°14'0 0.0
2014-Oct-26 17:31N 51°54' E 004°14'0 0.0
2014-Oct-26 16:31N 51°54' E 004°14'0 0.0
2014-Oct-26 15:31N 51°54' E 004°14'0 0.0
2014-Oct-26 14:31N 51°54' E 004°14'0 0.0
2014-Oct-26 13:31N 51°54' E 004°14'0 0.0
2014-Oct-26 12:31N 51°54' E 004°14'0 0.0
2014-Oct-26 11:31N 51°54' E 004°14'0 0.0
2014-Oct-26 10:31N 51°54' E 004°14'0 0.0
2014-Oct-26 09:31N 51°54' E 004°14'0 0.0
2014-Oct-26 08:31N 51°54' E 004°14'0 0.0
2014-Oct-26 07:31N 51°54' E 004°14'0 0.0
2014-Oct-26 06:31N 51°54' E 004°14'0 0.0
2014-Oct-26 05:31N 51°54' E 004°14'0 0.0
2014-Oct-26 04:31N 51°54' E 004°14'0 0.0
2014-Oct-26 03:31N 51°54' E 004°14'0 0.0
2014-Oct-26 02:31N 51°54' E 004°14'0 0.0
2014-Oct-26 01:31N 51°54' E 004°14'0 0.0
2014-Oct-26 00:31N 51°54' E 004°14'0 0.0
2014-Oct-25 23:31N 51°54' E 004°14'0 0.0
2014-Oct-25 22:31N 51°54' E 004°14'2 2.0
2014-Oct-25 21:34N 51°55' E 004°13'1111.0
2014-Oct-25 20:34N 52°00' E 003°57'1010.1
2014-Oct-25 19:34N 52°08' E 003°46'1312.5
2014-Oct-25 18:33N 52°21' E 003°48'1312.5
2014-Oct-25 17:33N 52°33' E 003°52'5111.8
2014-Oct-25 13:12N 53°19' E 004°30'813.1
2014-Oct-25 12:33N 53°27' E 004°35'1312.9
2014-Oct-25 11:34N 53°32' E 004°54'1312.9
2014-Oct-25 10:34N 53°37' E 005°15'1212.2
2014-Oct-25 09:34N 53°40' E 005°34'1211.8
2014-Oct-25 08:33N 53°44' E 005°53'1311.5
2014-Oct-25 07:25N 53°48' E 006°14'4611.8
2014-Oct-25 03:33N 53°60' E 007°29'1212.4
2014-Oct-25 02:34N 54°01' E 007°50'1312.6
2014-Oct-25 01:33N 54°01' E 008°12'1312.6
2014-Oct-25 00:34N 53°58' E 008°33'1111.2
2014-Oct-24 23:33N 53°51' E 008°47'1010.5
2014-Oct-24 22:34N 53°52' E 009°04'3 3.4
2014-Oct-24 21:33N 53°54' E 009°09'8 8.0
2014-Oct-24 20:33N 54°00' E 009°18'13 6.7
2014-Oct-24 18:33N 54°11' E 009°31'7 7.4
2014-Oct-24 17:33N 54°17' E 009°39'8 7.6
2014-Oct-24 16:30N 54°22' E 009°50'7 7.8
2014-Oct-24 15:32N 54°22' E 010°03'3 3.5
2014-Oct-24 14:33N 54°22' E 010°09'3 2.5
2014-Oct-24 13:33N 54°24' E 010°12'1010.1
2014-Oct-24 12:33N 54°31' E 010°23'1110.2
2014-Oct-24 11:26N 54°35' E 010°42'2412.3
2014-Oct-24 09:30N 54°33' E 011°23'1314.2
2014-Oct-24 08:33N 54°27' E 011°44'1212.0
2014-Oct-24 07:33N 54°26' E 012°04'1111.4
2014-Oct-24 06:33N 54°36' E 012°14'1311.6
2014-Oct-24 05:26N 54°43' E 012°32'3712.4
2014-Oct-24 02:28N 54°46' E 013°35'5012.8
2014-Oct-23 22:33N 54°01' E 014°15'8 8.1
2014-Oct-23 21:33N 53°53' E 014°16'8 7.9
2014-Oct-23 20:33N 53°47' E 014°23'1110.8
2014-Oct-23 19:33N 53°38' E 014°34'9 9.1
2014-Oct-23 18:33N 53°29' E 014°37'5 4.4
2014-Oct-23 17:31N 53°25' E 014°37'0 0.0
2014-Oct-23 16:33N 53°25' E 014°37'0 0.0
2014-Oct-23 15:30N 53°25' E 014°37'0 0.0
2014-Oct-23 14:30N 53°25' E 014°37'0 0.0
2014-Oct-23 13:30N 53°25' E 014°37'0 0.0
2014-Oct-23 12:31N 53°25' E 014°37'0 0.0
2014-Oct-23 11:30N 53°25' E 014°37'0 0.0
2014-Oct-23 10:30N 53°25' E 014°37'0 0.0
2014-Oct-23 09:34N 53°25' E 014°37'0 0.0
2014-Oct-23 08:33N 53°25' E 014°37'0 0.0
2014-Oct-23 07:33N 53°25' E 014°37'0 0.0
2014-Oct-23 06:33N 53°25' E 014°37'0 0.0
2014-Oct-23 05:33N 53°25' E 014°37'0 0.0
2014-Oct-23 04:33N 53°25' E 014°37'0 0.0
2014-Oct-23 03:34N 53°25' E 014°37'0 0.0
2014-Oct-23 02:33N 53°25' E 014°37'0 0.0
2014-Oct-23 01:33N 53°25' E 014°37'0 0.0
2014-Oct-23 00:33N 53°25' E 014°37'0 0.0
2014-Oct-22 23:33N 53°25' E 014°37'0 0.0
2014-Oct-22 22:33N 53°25' E 014°37'0 0.0
2014-Oct-22 21:33N 53°25' E 014°37'0 0.0
2014-Oct-22 20:33N 53°25' E 014°37'0 0.0
2014-Oct-22 19:33N 53°25' E 014°37'0 0.0
2014-Oct-22 18:33N 53°25' E 014°37'0 0.0
2014-Oct-22 17:33N 53°25' E 014°37'0 0.0
2014-Oct-22 16:33N 53°25' E 014°37'0 0.0
2014-Oct-22 15:33N 53°25' E 014°37'0 0.0
2014-Oct-22 14:33N 53°25' E 014°37'0 0.0
2014-Oct-22 13:33N 53°25' E 014°37'0 0.0
2014-Oct-22 12:33N 53°25' E 014°37'0 0.0
2014-Oct-22 11:33N 53°25' E 014°37'0 0.0
2014-Oct-22 10:33N 53°25' E 014°37'0 0.0
2014-Oct-22 09:33N 53°25' E 014°37'0 0.0
2014-Oct-22 08:33N 53°25' E 014°37'0 0.0
2014-Oct-22 07:33N 53°25' E 014°37'0 0.0
2014-Oct-22 06:33N 53°25' E 014°37'0 0.0
2014-Oct-22 05:33N 53°25' E 014°37'0 0.2
2014-Oct-22 04:33N 53°25' E 014°37'7 7.0
2014-Oct-22 03:33N 53°32' E 014°38'9 9.3
2014-Oct-22 02:33N 53°40' E 014°31'1111.3
2014-Oct-22 01:33N 53°49' E 014°20'6 6.5
2014-Oct-22 00:33N 53°55' E 014°17'47 9.3
2014-Oct-21 19:32N 54°37' E 014°54'1413.5
2014-Oct-21 18:28N 54°39' E 015°18'7813.2
2014-Oct-21 12:33N 54°56' E 017°31'1312.9
2014-Oct-21 11:33N 54°59' E 017°53'1312.9
2014-Oct-21 10:33N 54°59' E 018°15'1313.1
2014-Oct-21 09:33N 54°58' E 018°38'1313.0
2014-Oct-21 08:33N 54°56' E 019°00'1313.5
2014-Oct-21 07:33N 54°49' E 019°21'1313.1
2014-Oct-21 06:33N 54°43' E 019°41'10 9.4
2014-Oct-21 05:31N 54°38' E 019°55'0 0.2
2014-Oct-21 04:28N 54°38' E 019°55'0 0.0
2014-Oct-21 03:31N 54°38' E 019°55'0 0.0
2014-Oct-21 02:31N 54°38' E 019°55'0 0.0
2014-Oct-21 01:31N 54°38' E 019°55'0 0.0
2014-Oct-21 00:28N 54°38' E 019°55'0 0.0
2014-Oct-20 23:31N 54°38' E 019°55'0 0.0
2014-Oct-20 22:31N 54°38' E 019°55'0 0.0
2014-Oct-20 21:30N 54°38' E 019°55'0 0.0
2014-Oct-20 20:31N 54°38' E 019°55'2 1.8
2014-Oct-20 19:09N 54°39' E 019°51'2 3.1
2014-Oct-20 18:29N 54°40' E 019°48'1 0.7
2014-Oct-20 17:33N 54°39' E 019°49'0 0.0
2014-Oct-20 16:33N 54°39' E 019°49'0 0.0
2014-Oct-20 15:33N 54°39' E 019°49'0 0.0
2014-Oct-20 14:33N 54°39' E 019°49'0 0.1
2014-Oct-20 13:33N 54°39' E 019°49'0 0.0
2014-Oct-20 12:27N 54°39' E 019°49'0 0.1
2014-Oct-20 11:33N 54°39' E 019°49'0 0.0
2014-Oct-20 10:33N 54°39' E 019°49'0 0.0
2014-Oct-20 09:27N 54°39' E 019°49'0 0.0
2014-Oct-20 08:33N 54°39' E 019°49'0 0.0
2014-Oct-20 07:33N 54°39' E 019°49'6 6.4
2014-Oct-20 06:33N 54°43' E 019°40'10 9.7
2014-Oct-20 05:33N 54°52' E 019°34'  
Track history (hours):
 
Tides and Currents Weather Stations Pressure Air Temp Water Temp Dewpoint Dewpoint Depression Visibility Wind Speed Wind Dir Waves Ship Positions

Celine

Last reported at 2014-Oct-30 05:15 UTC. Time now 2014-Oct-31 05:36 UTC.
Position N 43°39' W 003°14'.

Length 129 m; draft 6.4 m.

Type: Cargo ship. MMSI: 269057000.

Date/timePositionNaut miles runAvg speedWind from/ knotsBaromVisibWave heightAir tempDewpointWater temp
2014-Oct-30 05:15N 43°39' W 003°14'913.4
2014-Oct-30 04:34N 43°48' W 003°19'1313.3
2014-Oct-30 03:33N 44°00' W 003°25'1313.2
2014-Oct-30 02:34N 44°12' W 003°32'1313.4
2014-Oct-30 01:33N 44°25' W 003°38'8113.4
2014-Oct-29 19:34N 45°40' W 004°19'1313.0
2014-Oct-29 18:34N 45°52' W 004°25'1313.0
2014-Oct-29 17:34N 46°04' W 004°33'1312.8
2014-Oct-29 16:33N 46°16' W 004°40'1312.6
2014-Oct-29 15:34N 46°28' W 004°46'1313.1
2014-Oct-29 14:34N 46°40' W 004°52'1212.2
2014-Oct-29 13:34N 46°52' W 004°58'1212.2
2014-Oct-29 12:33N 47°03' W 005°05'1313.2
2014-Oct-29 11:33N 47°16' W 005°12'1313.0
2014-Oct-29 10:33N 47°27' W 005°19'1313.4
2014-Oct-29 09:33N 47°40' W 005°27'1413.6
2014-Oct-29 08:33N 47°53' W 005°34'1313.1
2014-Oct-29 07:34N 48°05' W 005°41'14210.8
2014-Oct-28 18:27N 49°52' W 003°19'1112.6
2014-Oct-28 17:33N 49°58' W 003°04'1514.5
2014-Oct-28 16:33N 50°02' W 002°42'1615.6
2014-Oct-28 15:30N 50°07' W 002°18'1615.0
2014-Oct-28 14:28N 50°11' W 001°54'1313.5
2014-Oct-28 13:31N 50°14' W 001°35'1212.1
2014-Oct-28 12:31N 50°17' W 001°17'1210.5
2014-Oct-28 11:22N 50°20' W 000°58'8 9.8
2014-Oct-28 10:33N 50°22' W 000°46'1210.2
2014-Oct-28 09:21N 50°24' W 000°27'911.5
2014-Oct-28 08:33N 50°26' W 000°13'1312.8
2014-Oct-28 07:33N 50°30' E 000°06'1414.1
2014-Oct-28 06:33N 50°34' E 000°27'1413.9
2014-Oct-28 05:34N 50°40' E 000°46'1312.9
2014-Oct-28 04:33N 50°47' E 001°04'1211.7
2014-Oct-28 03:33N 50°55' E 001°18'1010.2
2014-Oct-28 02:33N 51°02' E 001°29'10 9.7
2014-Oct-28 01:33N 51°09' E 001°40'1111.3
2014-Oct-28 00:34N 51°19' E 001°49'1313.3
2014-Oct-27 23:34N 51°29' E 002°03'1414.3
2014-Oct-27 22:33N 51°39' E 002°19'1514.5
2014-Oct-27 21:33N 51°51' E 002°33'1413.7
2014-Oct-27 20:33N 52°02' E 002°47'1212.4
2014-Oct-27 19:33N 52°03' E 003°07'1312.8
2014-Oct-27 18:33N 52°03' E 003°28'1212.0
2014-Oct-27 17:33N 52°04' E 003°48'10 9.9
2014-Oct-27 16:33N 51°60' E 004°02'9 9.3
2014-Oct-27 15:33N 51°54' E 004°14'0 0.2
2014-Oct-27 14:31N 51°54' E 004°14'0 0.0
2014-Oct-27 13:28N 51°54' E 004°14'0 0.0
2014-Oct-27 12:31N 51°54' E 004°14'0 0.0
2014-Oct-27 11:31N 51°54' E 004°14'0 0.0
2014-Oct-27 10:31N 51°54' E 004°14'0 0.0
2014-Oct-27 09:31N 51°54' E 004°14'0 0.0
2014-Oct-27 08:31N 51°54' E 004°14'0 0.0
2014-Oct-27 07:31N 51°54' E 004°14'0 0.0
2014-Oct-27 06:31N 51°54' E 004°14'0 0.0
2014-Oct-27 05:31N 51°54' E 004°14'0 0.0
2014-Oct-27 04:31N 51°54' E 004°14'0 0.0
2014-Oct-27 03:31N 51°54' E 004°14'0 0.0
2014-Oct-27 02:31N 51°54' E 004°14'0 0.0
2014-Oct-27 01:31N 51°54' E 004°14'0 0.0
2014-Oct-27 00:31N 51°54' E 004°14'0 0.0
2014-Oct-26 23:31N 51°54' E 004°14'0 0.0
2014-Oct-26 22:31N 51°54' E 004°14'0 0.0
2014-Oct-26 21:31N 51°54' E 004°14'0 0.0
2014-Oct-26 20:31N 51°54' E 004°14'0 0.0
2014-Oct-26 19:31N 51°54' E 004°14'0 0.0
2014-Oct-26 18:31N 51°54' E 004°14'0 0.0
2014-Oct-26 17:31N 51°54' E 004°14'0 0.0
2014-Oct-26 16:31N 51°54' E 004°14'0 0.0
2014-Oct-26 15:31N 51°54' E 004°14'0 0.0
2014-Oct-26 14:31N 51°54' E 004°14'0 0.0
2014-Oct-26 13:31N 51°54' E 004°14'0 0.0
2014-Oct-26 12:31N 51°54' E 004°14'0 0.0
2014-Oct-26 11:31N 51°54' E 004°14'0 0.0
2014-Oct-26 10:31N 51°54' E 004°14'0 0.0
2014-Oct-26 09:31N 51°54' E 004°14'0 0.0
2014-Oct-26 08:31N 51°54' E 004°14'0 0.0
2014-Oct-26 07:31N 51°54' E 004°14'0 0.0
2014-Oct-26 06:31N 51°54' E 004°14'0 0.0
2014-Oct-26 05:31N 51°54' E 004°14'0 0.0
2014-Oct-26 04:31N 51°54' E 004°14'0 0.0
2014-Oct-26 03:31N 51°54' E 004°14'0 0.0
2014-Oct-26 02:31N 51°54' E 004°14'0 0.0
2014-Oct-26 01:31N 51°54' E 004°14'0 0.0
2014-Oct-26 00:31N 51°54' E 004°14'0 0.0
2014-Oct-25 23:31N 51°54' E 004°14'0 0.0
2014-Oct-25 22:31N 51°54' E 004°14'2 2.0
2014-Oct-25 21:34N 51°55' E 004°13'1111.0
2014-Oct-25 20:34N 52°00' E 003°57'1010.1
2014-Oct-25 19:34N 52°08' E 003°46'1312.5
2014-Oct-25 18:33N 52°21' E 003°48'1312.5
2014-Oct-25 17:33N 52°33' E 003°52'5111.8
2014-Oct-25 13:12N 53°19' E 004°30'813.1
2014-Oct-25 12:33N 53°27' E 004°35'1312.9
2014-Oct-25 11:34N 53°32' E 004°54'1312.9
2014-Oct-25 10:34N 53°37' E 005°15'1212.2
2014-Oct-25 09:34N 53°40' E 005°34'1211.8
2014-Oct-25 08:33N 53°44' E 005°53'1311.5
2014-Oct-25 07:25N 53°48' E 006°14'4611.8
2014-Oct-25 03:33N 53°60' E 007°29'1212.4
2014-Oct-25 02:34N 54°01' E 007°50'1312.6
2014-Oct-25 01:33N 54°01' E 008°12'1312.6
2014-Oct-25 00:34N 53°58' E 008°33'1111.2
2014-Oct-24 23:33N 53°51' E 008°47'1010.5
2014-Oct-24 22:34N 53°52' E 009°04'3 3.4
2014-Oct-24 21:33N 53°54' E 009°09'8 8.0
2014-Oct-24 20:33N 54°00' E 009°18'13 6.7
2014-Oct-24 18:33N 54°11' E 009°31'7 7.4
2014-Oct-24 17:33N 54°17' E 009°39'8 7.6
2014-Oct-24 16:30N 54°22' E 009°50'7 7.8
2014-Oct-24 15:32N 54°22' E 010°03'3 3.5
2014-Oct-24 14:33N 54°22' E 010°09'3 2.5
2014-Oct-24 13:33N 54°24' E 010°12'1010.1
2014-Oct-24 12:33N 54°31' E 010°23'1110.2
2014-Oct-24 11:26N 54°35' E 010°42'2412.3
2014-Oct-24 09:30N 54°33' E 011°23'1314.2
2014-Oct-24 08:33N 54°27' E 011°44'1212.0
2014-Oct-24 07:33N 54°26' E 012°04'1111.4
2014-Oct-24 06:33N 54°36' E 012°14'1311.6
2014-Oct-24 05:26N 54°43' E 012°32'3712.4
2014-Oct-24 02:28N 54°46' E 013°35'5012.8
2014-Oct-23 22:33N 54°01' E 014°15'8 8.1
2014-Oct-23 21:33N 53°53' E 014°16'8 7.9
2014-Oct-23 20:33N 53°47' E 014°23'1110.8
2014-Oct-23 19:33N 53°38' E 014°34'9 9.1
2014-Oct-23 18:33N 53°29' E 014°37'5 4.4
2014-Oct-23 17:31N 53°25' E 014°37'0 0.0
2014-Oct-23 16:33N 53°25' E 014°37'0 0.0
2014-Oct-23 15:30N 53°25' E 014°37'0 0.0
2014-Oct-23 14:30N 53°25' E 014°37'0 0.0
2014-Oct-23 13:30N 53°25' E 014°37'0 0.0
2014-Oct-23 12:31N 53°25' E 014°37'0 0.0
2014-Oct-23 11:30N 53°25' E 014°37'0 0.0
2014-Oct-23 10:30N 53°25' E 014°37'0 0.0
2014-Oct-23 09:34N 53°25' E 014°37'0 0.0
2014-Oct-23 08:33N 53°25' E 014°37'0 0.0
2014-Oct-23 07:33N 53°25' E 014°37'0 0.0
2014-Oct-23 06:33N 53°25' E 014°37'0 0.0
2014-Oct-23 05:33N 53°25' E 014°37'0 0.0
2014-Oct-23 04:33N 53°25' E 014°37'0 0.0
2014-Oct-23 03:34N 53°25' E 014°37'0 0.0
2014-Oct-23 02:33N 53°25' E 014°37'0 0.0
2014-Oct-23 01:33N 53°25' E 014°37'0 0.0
2014-Oct-23 00:33N 53°25' E 014°37'0 0.0
2014-Oct-22 23:33N 53°25' E 014°37'0 0.0
2014-Oct-22 22:33N 53°25' E 014°37'0 0.0
2014-Oct-22 21:33N 53°25' E 014°37'0 0.0
2014-Oct-22 20:33N 53°25' E 014°37'0 0.0
2014-Oct-22 19:33N 53°25' E 014°37'0 0.0
2014-Oct-22 18:33N 53°25' E 014°37'0 0.0
2014-Oct-22 17:33N 53°25' E 014°37'0 0.0
2014-Oct-22 16:33N 53°25' E 014°37'0 0.0
2014-Oct-22 15:33N 53°25' E 014°37'0 0.0
2014-Oct-22 14:33N 53°25' E 014°37'0 0.0
2014-Oct-22 13:33N 53°25' E 014°37'0 0.0
2014-Oct-22 12:33N 53°25' E 014°37'0 0.0
2014-Oct-22 11:33N 53°25' E 014°37'0 0.0
2014-Oct-22 10:33N 53°25' E 014°37'0 0.0
2014-Oct-22 09:33N 53°25' E 014°37'0 0.0
2014-Oct-22 08:33N 53°25' E 014°37'0 0.0
2014-Oct-22 07:33N 53°25' E 014°37'0 0.0
2014-Oct-22 06:33N 53°25' E 014°37'0 0.0
2014-Oct-22 05:33N 53°25' E 014°37'0 0.2
2014-Oct-22 04:33N 53°25' E 014°37'7 7.0
2014-Oct-22 03:33N 53°32' E 014°38'9 9.3
2014-Oct-22 02:33N 53°40' E 014°31'1111.3
2014-Oct-22 01:33N 53°49' E 014°20'6 6.5
2014-Oct-22 00:33N 53°55' E 014°17'47 9.3
2014-Oct-21 19:32N 54°37' E 014°54'1413.5
2014-Oct-21 18:28N 54°39' E 015°18'7813.2
2014-Oct-21 12:33N 54°56' E 017°31'1312.9
2014-Oct-21 11:33N 54°59' E 017°53'1312.9
2014-Oct-21 10:33N 54°59' E 018°15'1313.1
2014-Oct-21 09:33N 54°58' E 018°38'1313.0
2014-Oct-21 08:33N 54°56' E 019°00'1313.5
2014-Oct-21 07:33N 54°49' E 019°21'1313.1
2014-Oct-21 06:33N 54°43' E 019°41'10 9.4
2014-Oct-21 05:31N 54°38' E 019°55'0 0.2
2014-Oct-21 04:28N 54°38' E 019°55'0 0.0
2014-Oct-21 03:31N 54°38' E 019°55'0 0.0
2014-Oct-21 02:31N 54°38' E 019°55'0 0.0
2014-Oct-21 01:31N 54°38' E 019°55'0 0.0
2014-Oct-21 00:28N 54°38' E 019°55'0 0.0
2014-Oct-20 23:31N 54°38' E 019°55'0 0.0
2014-Oct-20 22:31N 54°38' E 019°55'0 0.0
2014-Oct-20 21:30N 54°38' E 019°55'0 0.0
2014-Oct-20 20:31N 54°38' E 019°55'2 1.8
2014-Oct-20 19:09N 54°39' E 019°51'2 3.1
2014-Oct-20 18:29N 54°40' E 019°48'1 0.7
2014-Oct-20 17:33N 54°39' E 019°49'0 0.0
2014-Oct-20 16:33N 54°39' E 019°49'0 0.0
2014-Oct-20 15:33N 54°39' E 019°49'0 0.0
2014-Oct-20 14:33N 54°39' E 019°49'0 0.1
2014-Oct-20 13:33N 54°39' E 019°49'0 0.0
2014-Oct-20 12:27N 54°39' E 019°49'0 0.1
2014-Oct-20 11:33N 54°39' E 019°49'0 0.0
2014-Oct-20 10:33N 54°39' E 019°49'0 0.0
2014-Oct-20 09:27N 54°39' E 019°49'0 0.0
2014-Oct-20 08:33N 54°39' E 019°49'0 0.0
2014-Oct-20 07:33N 54°39' E 019°49'6 6.4
2014-Oct-20 06:33N 54°43' E 019°40'10 9.7
2014-Oct-20 05:33N 54°52' E 019°34'  

Dump ship's entire track history